Terminal Aerodrome Forecast
Issued by NWS

Current Version | Previous Version | Graphics & Text | Print | Product List | Glossary On
Versions: 1 2 3 4 5 6 7 8 9 10 11 12 13 14 15 16 17
000
FTUS41 KRNK 261136
TAFLWB
TAF
KLWB 261136Z 2612/2712 00000KT 1/4SM FG VV001
      TEMPO 2612/2613 0SM FG
     FM261330 VRB03KT P6SM SCT015 BKN035
     FM261500 29005KT P6SM SCT040
     FM261900 32005KT P6SM SCT045 BKN080
     FM270000 00000KT P6SM SCT080
     FM270600 00000KT 1/4SM FG VV001
     FM270900 03002KT 1/4SM FG OVC001=

USA.gov is the U.S. government's official web portal to all federal, state and local government web resources and services.